Time;durP1;ratioP1;P1;durP2;ratioP2;P2;SDS_P1;SDS_P2;PMS_P1;PMS_P2;Temp;Humidity;BMP_temperature;BMP_pressure;BME280_temperature;BME280_humidity;BME280_pressure;Samples;Min_cycle;Max_cycle;Signal;HPM_P1;HPM_P2
2022/07/03 00:00:43;;;;;;;2.05;0.65;;;18.60;99.90;;;;;;5024014;28;20051;-82
2022/07/03 00:03:09;;;;;;;0.93;0.45;;;18.50;99.90;;;;;;5037295;28;20014;-83
2022/07/03 00:05:35;;;;;;;2.22;0.70;;;18.60;99.90;;;;;;5013859;28;20117;-84
2022/07/03 00:08:02;;;;;;;2.17;0.50;;;18.60;99.90;;;;;;5008195;28;20030;-84
2022/07/03 00:10:28;;;;;;;1.67;0.60;;;18.60;99.90;;;;;;5018368;28;20033;-84
2022/07/03 00:12:55;;;;;;;1.73;0.60;;;18.60;99.90;;;;;;5032096;28;20115;-85
2022/07/03 00:15:21;;;;;;;1.45;0.60;;;18.60;99.90;;;;;;5017518;28;20577;-84
2022/07/03 00:17:46;;;;;;;1.83;0.63;;;18.50;99.90;;;;;;5021862;28;20028;-84
2022/07/03 00:20:12;;;;;;;1.38;0.43;;;18.50;99.90;;;;;;5021392;28;20021;-84
2022/07/03 00:22:43;;;;;;;4.80;0.60;;;18.50;99.90;;;;;;5020177;28;20018;-84
2022/07/03 00:25:11;;;;;;;2.38;0.55;;;18.50;99.90;;;;;;5037325;28;20640;-84
2022/07/03 00:27:38;;;;;;;1.42;0.60;;;18.40;99.90;;;;;;5019936;28;20025;-83
2022/07/03 00:30:07;;;;;;;2.08;0.50;;;18.40;99.90;;;;;;5041252;28;20056;-84
2022/07/03 00:32:33;;;;;;;1.85;0.75;;;18.30;99.90;;;;;;5024723;28;20020;-84
2022/07/03 00:35:00;;;;;;;1.70;0.75;;;18.30;99.90;;;;;;5016879;23;20053;-88
2022/07/03 00:37:26;;;;;;;3.00;0.80;;;18.40;99.90;;;;;;4991315;28;20129;-88
2022/07/03 00:39:52;;;;;;;2.50;0.70;;;18.30;99.90;;;;;;4986459;28;20034;-88
2022/07/03 00:42:18;;;;;;;1.10;0.57;;;18.30;99.90;;;;;;5002788;28;20030;-88
2022/07/03 00:44:52;;;;;;;1.52;0.77;;;18.30;99.90;;;;;;4980477;28;20033;-89
2022/07/03 00:47:20;;;;;;;0.90;0.50;;;18.30;99.90;;;;;;4985822;28;20049;-88
2022/07/03 00:49:49;;;;;;;2.38;0.80;;;18.30;99.90;;;;;;4991637;28;20061;-89
2022/07/03 00:52:17;;;;;;;2.75;0.90;;;18.20;99.90;;;;;;4982861;28;20125;-88
2022/07/03 00:54:50;;;;;;;2.90;0.80;;;18.20;99.90;;;;;;4986198;28;20046;-89
2022/07/03 00:57:16;;;;;;;1.98;0.57;;;18.20;99.90;;;;;;4981229;28;20026;-89
2022/07/03 00:59:43;;;;;;;4.35;1.10;;;18.20;99.90;;;;;;4980230;28;20062;-88
2022/07/03 01:02:45;;;;;;;1.90;0.60;;;18.10;99.90;;;;;;4984529;28;20036;-88
2022/07/03 01:05:28;;;;;;;1.40;0.60;;;18.10;99.90;;;;;;5001650;28;20085;-89
2022/07/03 01:08:31;;;;;;;1.70;0.65;;;18.10;99.90;;;;;;4992683;28;20051;-87
2022/07/03 01:11:15;;;;;;;3.72;0.95;;;18.00;99.90;;;;;;4986936;28;20053;-88
2022/07/03 01:13:51;;;;;;;2.08;0.70;;;18.00;99.90;;;;;;4988933;28;20026;-88
2022/07/03 01:16:27;;;;;;;3.75;0.80;;;18.00;99.90;;;;;;5010389;28;20520;-88
2022/07/03 01:19:02;;;;;;;1.58;0.57;;;18.00;99.90;;;;;;4992945;28;20121;-89
2022/07/03 01:21:41;;;;;;;1.20;0.52;;;18.00;99.90;;;;;;4985855;28;20025;-88
2022/07/03 01:24:30;;;;;;;1.73;0.70;;;17.90;99.90;;;;;;4991113;28;20034;-88
2022/07/03 01:27:04;;;;;;;1.50;0.68;;;17.90;99.90;;;;;;4990384;28;20049;-88
2022/07/03 01:29:55;;;;;;;1.77;0.60;;;17.90;99.90;;;;;;4988029;28;20017;-87
2022/07/03 01:32:23;;;;;;;;;;;17.90;99.90;;;;;;4970020;28;20030;-88
2022/07/03 01:34:52;;;;;;;1.33;0.52;;;17.80;99.90;;;;;;5010220;28;19921;-88
2022/07/03 01:37:21;;;;;;;1.80;0.50;;;17.80;99.90;;;;;;4986070;28;20257;-88
2022/07/03 01:39:51;;;;;;;0.80;0.40;;;17.80;99.90;;;;;;4985422;28;20487;-89
2022/07/03 01:42:18;;;;;;;1.83;0.45;;;17.90;99.90;;;;;;4989599;28;20030;-88
2022/07/03 01:44:47;;;;;;;1.70;0.60;;;17.80;99.90;;;;;;4990294;28;20109;-88
2022/07/03 01:47:15;;;;;;;3.60;0.40;;;17.80;99.90;;;;;;4995375;28;20027;-89
2022/07/03 01:49:42;;;;;;;1.25;0.60;;;17.80;99.90;;;;;;4993955;28;20482;-88
2022/07/03 01:52:10;;;;;;;1.42;0.50;;;17.80;99.90;;;;;;5009175;28;20026;-89
2022/07/03 01:54:38;;;;;;;0.63;0.30;;;17.80;99.90;;;;;;4990677;28;20097;-88
2022/07/03 01:57:09;;;;;;;1.42;0.32;;;17.80;99.90;;;;;;4990942;28;20037;-88
2022/07/03 01:59:35;;;;;;;1.52;0.47;;;17.80;99.90;;;;;;5008376;28;20033;-89
2022/07/03 02:02:22;;;;;;;1.27;0.47;;;17.80;99.90;;;;;;4986040;28;20022;-88
2022/07/03 02:04:54;;;;;;;1.88;0.50;;;17.70;99.90;;;;;;4989005;28;20033;-88
2022/07/03 02:07:39;;;;;;;;;;;17.70;99.90;;;;;;4992913;28;20445;-89
2022/07/03 02:10:07;;;;;;;1.08;0.40;;;17.70;99.90;;;;;;4991708;28;20012;-89
2022/07/03 02:12:40;;;;;;;1.50;0.60;;;17.70;99.90;;;;;;4987099;28;20022;-88
2022/07/03 02:15:08;;;;;;;1.40;0.57;;;17.70;99.90;;;;;;4988249;28;20030;-89
2022/07/03 02:17:43;;;;;;;0.93;0.45;;;17.70;99.90;;;;;;4989192;28;20065;-88
2022/07/03 02:20:09;;;;;;;1.15;0.50;;;17.60;99.90;;;;;;4993967;28;20037;-89
2022/07/03 02:22:40;;;;;;;1.05;0.35;;;17.60;99.90;;;;;;4989318;28;20501;-89
2022/07/03 02:25:34;;;;;;;1.02;0.40;;;17.60;99.90;;;;;;5004751;28;20037;-88
2022/07/03 02:28:11;;;;;;;0.90;0.40;;;17.60;99.90;;;;;;4989744;28;20112;-88
2022/07/03 02:30:41;;;;;;;1.15;0.40;;;17.50;99.90;;;;;;4988109;28;20046;-89
2022/07/03 02:33:11;;;;;;;0.97;0.43;;;17.50;99.90;;;;;;4986084;28;20029;-89
2022/07/03 02:35:37;;;;;;;1.60;0.50;;;17.50;99.90;;;;;;4988290;28;20520;-89
2022/07/03 02:38:21;;;;;;;1.23;0.40;;;17.50;99.90;;;;;;4987404;28;20075;-89
2022/07/03 02:41:02;;;;;;;0.55;0.30;;;17.50;99.90;;;;;;4987814;28;20023;-88
2022/07/03 02:43:44;;;;;;;1.67;0.60;;;17.60;99.90;;;;;;5007272;28;20092;-88
2022/07/03 02:49:27;;;;;;;1.00;0.30;;;17.60;99.90;;;;;;4999762;28;20045;-89
2022/07/03 02:52:22;;;;;;;1.00;0.40;;;17.60;99.90;;;;;;4991934;28;20417;-89
2022/07/03 02:54:51;;;;;;;1.30;0.50;;;17.50;99.90;;;;;;5000543;28;20089;-88
2022/07/03 02:57:22;;;;;;;1.05;0.40;;;17.50;99.90;;;;;;4983664;28;20021;-89
2022/07/03 02:59:55;;;;;;;;;;;17.50;99.90;;;;;;4996145;28;20112;-89
2022/07/03 03:02:33;;;;;;;0.90;0.40;;;17.50;99.90;;;;;;4982244;28;20365;-89
2022/07/03 03:05:20;;;;;;;1.33;0.50;;;17.50;99.90;;;;;;4987635;28;20398;-89
2022/07/03 03:07:53;;;;;;;1.35;0.40;;;17.40;99.90;;;;;;5011022;28;20083;-89
2022/07/03 03:10:20;;;;;;;0.95;0.43;;;17.30;99.90;;;;;;4998554;28;20014;-89
2022/07/03 03:13:06;;;;;;;1.33;0.47;;;17.30;99.90;;;;;;4989157;28;20026;-88
2022/07/03 03:15:34;;;;;;;0.57;0.30;;;17.30;99.90;;;;;;5007335;28;20069;-87
2022/07/03 03:18:11;;;;;;;0.68;0.25;;;17.30;99.90;;;;;;4994626;28;20517;-88
2022/07/03 03:20:38;;;;;;;1.70;0.52;;;17.20;99.90;;;;;;5009989;28;20029;-89
2022/07/03 03:23:49;;;;;;;0.60;0.32;;;17.20;99.90;;;;;;4985507;28;20422;-89
2022/07/03 03:26:21;;;;;;;1.40;0.40;;;17.20;99.90;;;;;;4993387;28;20041;-88
2022/07/03 03:28:48;;;;;;;2.03;0.40;;;17.20;99.90;;;;;;4990616;28;20026;-88
2022/07/03 03:31:14;;;;;;;1.02;0.40;;;17.20;99.90;;;;;;5005652;28;20030;-88
2022/07/03 03:33:44;;;;;;;1.73;0.30;;;17.20;99.90;;;;;;4994184;28;20048;-88
2022/07/03 03:36:11;;;;;;;1.92;0.50;;;17.20;99.90;;;;;;4980029;28;20619;-89
2022/07/03 03:38:38;;;;;;;0.70;0.30;;;17.20;99.90;;;;;;4981554;28;20132;-88
2022/07/03 03:41:04;;;;;;;1.05;0.50;;;17.20;99.90;;;;;;5001993;28;20401;-88
2022/07/03 03:43:31;;;;;;;1.20;0.43;;;17.20;99.90;;;;;;4994304;28;20025;-88
2022/07/03 03:45:57;;;;;;;1.63;0.47;;;17.20;99.90;;;;;;4989736;28;20092;-89
2022/07/03 03:48:24;;;;;;;1.15;0.47;;;17.20;99.90;;;;;;5010097;28;20040;-89
2022/07/03 03:50:49;;;;;;;0.70;0.40;;;17.20;99.90;;;;;;4985255;28;20501;-87
2022/07/03 03:53:17;;;;;;;0.93;0.45;;;17.20;99.90;;;;;;4993971;28;20022;-87
2022/07/03 03:56:07;;;;;;;1.60;0.57;;;17.20;99.90;;;;;;4984047;28;20113;-89
2022/07/03 03:58:34;;;;;;;1.65;0.50;;;17.10;99.90;;;;;;4984189;28;20084;-89
2022/07/03 04:01:02;;;;;;;1.00;0.40;;;17.20;99.90;;;;;;4987348;28;20160;-88
2022/07/03 04:03:29;;;;;;;1.30;0.40;;;17.20;99.90;;;;;;5011279;28;20117;-88
2022/07/03 04:05:55;;;;;;;1.08;0.40;;;17.10;99.90;;;;;;4992886;28;20029;-88
2022/07/03 04:08:22;;;;;;;1.20;0.43;;;17.20;99.90;;;;;;4999475;28;20026;-88
2022/07/03 04:10:49;;;;;;;1.42;0.50;;;17.40;99.90;;;;;;5011899;28;20057;-88
2022/07/03 04:13:15;;;;;;;1.02;0.40;;;17.20;99.90;;;;;;4988427;28;20026;-89
2022/07/03 04:15:42;;;;;;;1.70;0.70;;;17.30;99.90;;;;;;4982087;28;20034;-89
2022/07/03 04:18:07;;;;;;;0.70;0.30;;;17.30;99.90;;;;;;4983831;28;20070;-89
2022/07/03 04:20:33;;;;;;;2.42;0.40;;;17.30;99.90;;;;;;4997528;28;20033;-88
2022/07/03 04:22:59;;;;;;;1.00;0.40;;;17.40;99.90;;;;;;4993507;28;20128;-88
2022/07/03 04:25:25;;;;;;;1.70;0.50;;;17.40;99.90;;;;;;4988985;28;20028;-88
2022/07/03 04:27:50;;;;;;;3.03;0.43;;;17.40;99.90;;;;;;5004065;28;20097;-87
2022/07/03 04:30:16;;;;;;;1.00;0.35;;;17.50;99.90;;;;;;5009389;28;20109;-87
2022/07/03 04:32:42;;;;;;;1.90;0.50;;;17.60;99.90;;;;;;4981288;28;20054;-88
2022/07/03 04:35:07;;;;;;;0.75;0.38;;;17.50;99.90;;;;;;4985410;28;20479;-88
2022/07/03 04:37:33;;;;;;;1.20;0.47;;;17.60;99.90;;;;;;4984602;28;20398;-89
2022/07/03 04:39:59;;;;;;;1.25;0.60;;;17.60;99.90;;;;;;4986738;28;20085;-88
2022/07/03 04:42:24;;;;;;;1.48;0.50;;;17.70;99.90;;;;;;4983789;28;20030;-87
2022/07/03 04:44:50;;;;;;;1.75;0.47;;;17.70;99.90;;;;;;4989503;28;20031;-89
2022/07/03 04:47:16;;;;;;;2.83;0.52;;;17.70;99.90;;;;;;5004367;28;20027;-88
2022/07/03 04:49:42;;;;;;;1.33;0.50;;;17.80;99.90;;;;;;4992575;28;20179;-89
2022/07/03 04:52:08;;;;;;;1.63;0.40;;;17.90;99.90;;;;;;4987055;28;20049;-89
2022/07/03 04:54:34;;;;;;;2.97;0.50;;;17.90;99.90;;;;;;4984781;28;20058;-88
2022/07/03 04:57:00;;;;;;;1.40;0.68;;;17.90;99.90;;;;;;4986004;28;20054;-88
2022/07/03 04:59:25;;;;;;;0.98;0.43;;;17.90;99.90;;;;;;4992202;28;20026;-88
2022/07/03 05:01:51;;;;;;;1.80;0.47;;;17.90;99.90;;;;;;5004675;28;20055;-88
2022/07/03 05:04:17;;;;;;;0.90;0.40;;;18.10;99.90;;;;;;4992571;28;20482;-88
2022/07/03 05:06:43;;;;;;;1.50;0.60;;;18.20;99.90;;;;;;4984194;28;20518;-88
2022/07/03 05:09:08;;;;;;;0.68;0.43;;;18.30;99.90;;;;;;4992079;28;20022;-89
2022/07/03 05:11:35;;;;;;;1.48;0.60;;;18.30;99.90;;;;;;4996554;28;20018;-89
2022/07/03 05:14:01;;;;;;;0.93;0.52;;;18.40;99.90;;;;;;5011140;28;20426;-89
2022/07/03 05:16:27;;;;;;;1.85;0.35;;;18.50;99.90;;;;;;4993489;28;20022;-88
2022/07/03 05:18:53;;;;;;;0.95;0.50;;;18.60;99.90;;;;;;4994138;28;20041;-89
2022/07/03 05:21:18;;;;;;;0.70;0.40;;;18.60;99.90;;;;;;4991129;28;20019;-87
2022/07/03 05:23:44;;;;;;;1.17;0.50;;;18.70;99.90;;;;;;4992676;28;20022;-88
2022/07/03 05:26:10;;;;;;;1.27;0.57;;;18.70;99.90;;;;;;4994308;28;20030;-88
2022/07/03 05:28:35;;;;;;;0.82;0.38;;;18.80;99.90;;;;;;4993746;28;20033;-88
2022/07/03 05:31:01;;;;;;;1.17;0.50;;;18.90;99.90;;;;;;4988785;28;20022;-89
2022/07/03 05:33:27;;;;;;;1.88;0.55;;;19.00;99.90;;;;;;5013178;28;20034;-88
2022/07/03 05:35:57;;;;;;;1.45;0.50;;;19.00;99.90;;;;;;4983833;28;20034;-89
2022/07/03 05:41:08;;;;;;;1.98;0.60;;;19.20;99.90;;;;;;5004860;28;20081;-89
2022/07/03 05:43:33;;;;;;;1.30;0.47;;;19.40;99.90;;;;;;4991860;28;20022;-89
2022/07/03 05:45:59;;;;;;;0.80;0.40;;;19.30;99.90;;;;;;4987908;28;20022;-88
2022/07/03 05:48:26;;;;;;;1.33;0.60;;;19.50;99.90;;;;;;4982961;28;20092;-89
2022/07/03 05:50:52;;;;;;;2.40;0.60;;;19.60;99.90;;;;;;4993162;28;20038;-89
2022/07/03 05:53:17;;;;;;;1.67;0.70;;;19.80;99.90;;;;;;4983754;28;20164;-89
2022/07/03 05:55:43;;;;;;;1.67;0.57;;;19.90;99.90;;;;;;5005639;28;20037;-89
2022/07/03 05:58:09;;;;;;;1.83;0.70;;;19.90;99.90;;;;;;4991017;28;20147;-89
2022/07/03 06:00:35;;;;;;;1.38;0.45;;;20.00;99.90;;;;;;4988196;28;20489;-89
2022/07/03 06:03:01;;;;;;;2.95;0.47;;;20.10;99.90;;;;;;4992329;28;20589;-89
2022/07/03 06:05:28;;;;;;;1.30;0.40;;;20.10;99.90;;;;;;4986749;28;20466;-89
2022/07/03 06:07:54;;;;;;;1.35;0.40;;;20.20;99.90;;;;;;4990748;28;20026;-89
2022/07/03 06:10:20;;;;;;;1.23;0.50;;;20.20;99.90;;;;;;4990470;28;20485;-89
2022/07/03 06:12:46;;;;;;;1.70;0.40;;;20.30;99.90;;;;;;4987278;28;20065;-89
2022/07/03 06:15:11;;;;;;;1.30;0.63;;;20.30;99.90;;;;;;4985117;28;20049;-88
2022/07/03 06:17:37;;;;;;;1.05;0.45;;;20.30;99.90;;;;;;4985022;28;20080;-88
2022/07/03 06:20:06;;;;;;;1.23;0.50;;;20.40;99.90;;;;;;4980048;28;20026;-88
2022/07/03 06:22:32;;;;;;;1.42;0.60;;;20.50;99.90;;;;;;4979514;28;20033;-88
2022/07/03 06:24:58;;;;;;;1.40;0.60;;;20.60;99.90;;;;;;4989684;28;20416;-88
2022/07/03 06:27:24;;;;;;;0.63;0.45;;;20.60;99.90;;;;;;4986155;28;20022;-89
2022/07/03 06:29:50;;;;;;;1.33;0.47;;;20.70;99.90;;;;;;5012937;28;20032;-88
2022/07/03 06:32:16;;;;;;;0.88;0.40;;;20.90;99.90;;;;;;4991625;28;20123;-88
2022/07/03 06:34:59;;;;;;;1.52;0.50;;;20.90;99.90;;;;;;5013995;22;20165;-85
2022/07/03 06:41:05;;;;;;;0.85;0.40;;;21.10;99.90;;;;;;4934847;29;20019;-84
2022/07/03 06:44:01;;;;;;;1.40;0.45;;;21.10;99.90;;;;;;4933871;29;20023;-85
2022/07/03 06:46:26;;;;;;;1.13;0.43;;;21.30;99.90;;;;;;4913756;29;20121;-85
2022/07/03 06:48:55;;;;;;;1.23;0.50;;;21.40;99.90;;;;;;4958805;28;20121;-84
2022/07/03 06:51:49;;;;;;;1.00;0.40;;;21.60;99.90;;;;;;4980115;28;20158;-85
2022/07/03 06:54:17;;;;;;;0.60;0.40;;;21.90;99.90;;;;;;4974410;28;20387;-85
2022/07/03 06:56:43;;;;;;;1.33;0.40;;;21.90;99.90;;;;;;4987338;28;20029;-85
2022/07/03 06:59:17;;;;;;;0.73;0.40;;;22.10;99.90;;;;;;4990270;28;20030;-85
2022/07/03 07:02:02;;;;;;;1.48;0.50;;;22.40;99.90;;;;;;4966362;28;20022;-85
2022/07/03 07:04:35;;;;;;;1.88;0.50;;;22.30;99.90;;;;;;4972909;28;20026;-85
2022/07/03 07:07:04;;;;;;;1.63;0.50;;;22.50;99.90;;;;;;4976607;28;20019;-85
2022/07/03 07:09:30;;;;;;;0.77;0.40;;;22.70;99.90;;;;;;4983028;28;20030;-85
2022/07/03 07:12:05;;;;;;;0.90;0.40;;;22.90;99.90;;;;;;4968298;28;20391;-85
2022/07/03 07:14:35;;;;;;;1.05;0.40;;;22.90;99.90;;;;;;4989314;28;20030;-84
2022/07/03 07:17:14;;;;;;;0.70;0.22;;;23.10;99.90;;;;;;4984839;28;20023;-85
2022/07/03 07:19:43;;;;;;;0.52;0.25;;;23.10;99.90;;;;;;4985034;28;20018;-85
2022/07/03 07:22:14;;;;;;;1.17;0.30;;;23.20;99.90;;;;;;4971157;28;20041;-85
2022/07/03 07:24:40;;;;;;;0.77;0.30;;;23.40;99.90;;;;;;4980814;28;20078;-85
2022/07/03 07:27:05;;;;;;;1.67;0.22;;;23.50;99.90;;;;;;4972789;28;20026;-88
2022/07/03 07:29:31;;;;;;;0.57;0.20;;;23.60;99.90;;;;;;4989128;28;20023;-88
2022/07/03 07:32:02;;;;;;;0.40;0.20;;;23.80;99.90;;;;;;4973483;28;20093;-89
2022/07/03 07:34:30;;;;;;;0.88;0.40;;;23.80;99.90;;;;;;4982674;28;20090;-88
2022/07/03 07:36:56;;;;;;;0.55;0.20;;;23.90;99.90;;;;;;4969967;28;20031;-88
2022/07/03 07:39:25;;;;;;;0.57;0.30;;;23.90;99.90;;;;;;4985687;28;20057;-87
2022/07/03 07:42:27;;;;;;;0.47;0.20;;;24.00;99.90;;;;;;4975875;28;20399;-87
2022/07/03 07:45:06;;;;;;;1.27;0.50;;;24.10;99.90;;;;;;4973103;28;20542;-86
2022/07/03 07:47:35;;;;;;;5.05;0.30;;;24.20;99.90;;;;;;4985528;28;20053;-86
2022/07/03 07:50:01;;;;;;;0.40;0.20;;;24.20;99.90;;;;;;4973207;28;20038;-86
2022/07/03 07:55:40;;;;;;;;;;;;;;;;;;;;;
2022/07/03 07:58:16;;;;;;;0.73;0.38;;;24.50;99.90;;;;;;4980068;28;20023;-86
2022/07/03 08:06:59;;;;;;;0.40;0.10;;;25.00;99.40;;;;;;4984299;28;20045;-86
2022/07/03 08:09:28;;;;;;;1.75;0.13;;;25.30;98.30;;;;;;4973803;28;20068;-87
2022/07/03 08:11:53;;;;;;;0.30;0.20;;;25.40;97.50;;;;;;4966300;28;20398;-86
2022/07/03 08:14:51;;;;;;;1.10;0.20;;;25.50;95.70;;;;;;4994489;28;20025;-87
2022/07/03 08:17:31;;;;;;;0.10;0.10;;;25.50;96.70;;;;;;4983262;28;20030;-87
2022/07/03 08:20:01;;;;;;;0.45;0.10;;;25.50;96.30;;;;;;4990898;28;20037;-87
2022/07/03 08:22:51;;;;;;;0.15;0.10;;;25.50;96.00;;;;;;4982859;28;20022;-87
2022/07/03 08:25:36;;;;;;;1.10;0.10;;;25.70;95.90;;;;;;4986974;28;20027;-87
2022/07/03 08:28:21;;;;;;;0.60;0.10;;;25.60;94.90;;;;;;4974958;28;20323;-87
2022/07/03 08:31:27;;;;;;;0.80;0.20;;;25.70;96.00;;;;;;4971240;28;20041;-87
2022/07/03 08:40:35;;;;;;;1.23;0.15;;;25.90;94.80;;;;;;4983326;28;20030;-87
2022/07/03 08:43:32;;;;;;;0.15;0.10;;;26.10;95.10;;;;;;4989358;28;20446;-86
2022/07/03 08:46:15;;;;;;;0.77;0.20;;;26.20;94.30;;;;;;4980915;28;20115;-88
2022/07/03 08:48:45;;;;;;;1.00;0.30;;;26.30;93.20;;;;;;4981431;28;20491;-87
2022/07/03 08:51:49;;;;;;;0.75;0.20;;;26.50;94.10;;;;;;4974165;28;20482;-87
2022/07/03 08:54:36;;;;;;;;;;;;;;;;;;;;;
2022/07/03 08:57:08;;;;;;;0.30;0.13;;;27.00;93.00;;;;;;4986513;28;20046;-87
2022/07/03 09:00:06;;;;;;;0.13;0.10;;;27.20;93.20;;;;;;4987037;28;20428;-87
2022/07/03 09:03:16;;;;;;;0.50;0.10;;;27.40;91.90;;;;;;4986676;28;20102;-87
2022/07/03 09:05:50;;;;;;;0.10;0.10;;;27.70;92.00;;;;;;4973089;28;20058;-87
2022/07/03 09:08:52;;;;;;;0.20;0.10;;;27.70;90.90;;;;;;4982862;28;20459;-87
2022/07/03 09:12:10;;;;;;;0.20;0.10;;;27.80;90.60;;;;;;4978745;28;20034;-87
2022/07/03 09:14:56;;;;;;;0.45;0.10;;;28.00;91.70;;;;;;4977207;28;20050;-87
2022/07/03 09:17:40;;;;;;;0.30;0.10;;;28.10;90.30;;;;;;4979823;28;20608;-87
2022/07/03 09:20:12;;;;;;;0.17;0.10;;;28.00;89.40;;;;;;4992331;28;20399;-87
2022/07/03 09:22:38;;;;;;;1.70;0.20;;;28.20;86.80;;;;;;4972150;28;20101;-89
2022/07/03 09:25:18;;;;;;;0.10;0.10;;;28.10;85.30;;;;;;4986310;28;20435;-88
2022/07/03 09:28:08;;;;;;;0.10;0.10;;;28.10;86.70;;;;;;4970619;28;20513;-88
2022/07/03 09:31:00;;;;;;;0.40;0.10;;;27.60;85.90;;;;;;4974682;28;20038;-88
2022/07/03 09:33:35;;;;;;;0.40;0.10;;;27.50;86.70;;;;;;4967861;28;20035;-89
2022/07/03 09:36:04;;;;;;;0.22;0.15;;;27.30;85.80;;;;;;4971899;28;20026;-88
2022/07/03 09:38:30;;;;;;;0.10;0.10;;;27.10;86.30;;;;;;4964323;28;20057;-89
2022/07/03 09:41:21;;;;;;;0.30;0.13;;;26.90;86.90;;;;;;4988270;28;20050;-88
2022/07/03 09:43:46;;;;;;;1.10;0.30;;;26.90;85.90;;;;;;4977547;28;20018;-88
2022/07/03 09:46:12;;;;;;;0.70;0.20;;;27.20;87.40;;;;;;5004981;28;20027;-89
2022/07/03 09:48:41;;;;;;;0.47;0.10;;;27.10;85.30;;;;;;4983281;28;20104;-88
2022/07/03 09:51:23;;;;;;;0.45;0.10;;;27.10;86.50;;;;;;4978199;28;20150;-89
2022/07/03 09:53:57;;;;;;;0.20;0.10;;;27.20;85.90;;;;;;4994822;28;20029;-90
2022/07/03 09:56:35;;;;;;;0.50;0.20;;;27.50;88.90;;;;;;4986055;28;20667;-91
2022/07/03 09:59:07;;;;;;;0.20;0.10;;;28.00;83.70;;;;;;4972190;28;20022;-91
2022/07/03 10:01:33;;;;;;;0.20;0.10;;;28.30;83.50;;;;;;4992550;28;20027;-90
2022/07/03 10:04:17;;;;;;;0.10;0.10;;;28.80;82.20;;;;;;4992918;28;20054;-91
2022/07/03 10:07:00;;;;;;;0.20;0.10;;;29.20;80.10;;;;;;4993975;28;20072;-90
2022/07/03 10:09:28;;;;;;;0.57;0.10;;;29.40;80.40;;;;;;4991461;28;20030;-90
2022/07/03 10:11:56;;;;;;;0.45;0.17;;;29.30;78.50;;;;;;5003311;28;20241;-90
2022/07/03 10:14:27;;;;;;;3.42;0.30;;;29.50;78.10;;;;;;4990802;28;20058;-91
2022/07/03 10:16:55;;;;;;;0.20;0.10;;;29.30;77.60;;;;;;4978280;28;20026;-92
2022/07/03 10:19:23;;;;;;;0.20;0.10;;;29.30;76.90;;;;;;4995105;28;20113;-91
2022/07/03 10:22:21;;;;;;;0.45;0.10;;;29.70;77.90;;;;;;4980363;28;20018;-93
2022/07/03 10:24:49;;;;;;;1.10;0.20;;;30.10;79.20;;;;;;4987589;28;20042;-91
2022/07/03 10:27:15;;;;;;;0.35;0.10;;;30.60;77.10;;;;;;4995905;28;20121;-91
2022/07/03 10:29:44;;;;;;;0.85;0.10;;;30.60;75.50;;;;;;4989098;28;20492;-91
2022/07/03 10:32:11;;;;;;;0.32;0.10;;;30.60;75.20;;;;;;4974737;28;20034;-90
2022/07/03 10:34:37;;;;;;;0.28;0.10;;;30.90;74.80;;;;;;4988863;28;20027;-92
2022/07/03 10:37:06;;;;;;;0.52;0.10;;;30.90;74.10;;;;;;4995462;28;20034;-91
2022/07/03 10:39:48;;;;;;;0.20;0.10;;;31.30;75.60;;;;;;4978571;28;20750;-91
2022/07/03 10:45:20;;;;;;;0.32;0.10;;;30.70;75.20;;;;;;4990431;28;20029;-91
2022/07/03 10:47:47;;;;;;;0.43;0.10;;;30.70;74.80;;;;;;4977320;28;20343;-92
2022/07/03 10:50:17;;;;;;;0.40;0.10;;;30.70;72.90;;;;;;4969054;28;20133;-90
2022/07/03 10:52:50;;;;;;;0.05;0.00;;;30.90;74.80;;;;;;4987938;28;20064;-90
2022/07/03 10:55:18;;;;;;;0.45;0.20;;;31.20;73.10;;;;;;4987355;28;20174;-90
2022/07/03 10:58:10;;;;;;;0.20;0.10;;;31.20;72.90;;;;;;4992654;28;20050;-92
2022/07/03 11:01:00;;;;;;;0.57;0.20;;;31.30;74.20;;;;;;4989206;28;20101;-91
2022/07/03 11:03:57;;;;;;;0.20;0.10;;;31.30;74.30;;;;;;4989853;28;20015;-91
2022/07/03 11:06:59;;;;;;;0.10;0.10;;;31.50;73.10;;;;;;4983600;28;20125;-91
2022/07/03 11:09:28;;;;;;;0.47;0.20;;;31.30;72.60;;;;;;4920195;29;20098;-91
2022/07/03 11:12:02;;;;;;;0.10;0.10;;;31.50;72.50;;;;;;4960424;28;20435;-91
2022/07/03 11:14:29;;;;;;;0.63;0.35;;;31.50;71.90;;;;;;4976344;28;20023;-90
2022/07/03 11:17:21;;;;;;;0.40;0.10;;;31.90;71.70;;;;;;4992377;28;20475;-91
2022/07/03 11:23:10;;;;;;;0.17;0.10;;;32.70;68.30;;;;;;4984517;28;20030;-91
2022/07/03 11:25:48;;;;;;;0.28;0.10;;;32.60;69.40;;;;;;4946941;29;20365;-91
2022/07/03 11:28:40;;;;;;;0.80;0.20;;;32.20;71.80;;;;;;4970808;28;20041;-93
2022/07/03 11:31:15;;;;;;;0.43;0.10;;;32.40;69.60;;;;;;4994104;28;20026;-92
2022/07/03 11:33:44;;;;;;;0.45;0.10;;;32.60;68.90;;;;;;4989789;28;20030;-91
2022/07/03 11:36:11;;;;;;;0.32;0.10;;;32.70;67.90;;;;;;4993236;28;20066;-92
2022/07/03 11:38:37;;;;;;;0.50;0.20;;;33.00;68.40;;;;;;4984633;28;20074;-92
2022/07/03 11:41:07;;;;;;;0.40;0.10;;;33.10;68.00;;;;;;4980764;28;20083;-92
2022/07/03 11:43:35;;;;;;;0.47;0.20;;;33.40;67.90;;;;;;5004526;28;20022;-92
2022/07/03 11:46:01;;;;;;;0.38;0.10;;;33.30;66.30;;;;;;4990643;28;20088;-91
2022/07/03 11:48:28;;;;;;;0.10;0.10;;;34.50;69.10;;;;;;4977610;28;20062;-92
2022/07/03 11:51:01;;;;;;;0.47;0.10;;;33.60;70.70;;;;;;4973538;28;20411;-91
2022/07/03 11:53:38;;;;;;;0.10;0.10;;;33.40;66.60;;;;;;4975318;28;20030;-91
2022/07/03 11:56:15;;;;;;;0.20;0.10;;;33.30;66.10;;;;;;4991270;28;20034;-91
2022/07/03 11:58:49;;;;;;;0.10;0.00;;;33.10;68.60;;;;;;4967727;28;20414;-91
2022/07/03 12:01:34;;;;;;;0.20;0.10;;;33.20;65.50;;;;;;4983937;28;20018;-92
2022/07/03 12:04:19;;;;;;;0.32;0.10;;;32.90;67.20;;;;;;4968710;28;20030;-91
2022/07/03 12:07:01;;;;;;;0.17;0.10;;;33.20;68.20;;;;;;4994588;28;20035;-92
2022/07/03 12:09:37;;;;;;;0.55;0.10;;;33.30;64.10;;;;;;4972320;28;20510;-91
2022/07/03 12:12:10;;;;;;;0.30;0.20;;;33.60;64.80;;;;;;4986809;28;20042;-93
2022/07/03 12:14:54;;;;;;;0.47;0.10;;;33.70;63.80;;;;;;4977209;28;20026;-92
2022/07/03 12:17:22;;;;;;;0.55;0.10;;;33.90;63.90;;;;;;4979288;28;20075;-91
2022/07/03 12:19:51;;;;;;;0.52;0.20;;;33.70;64.40;;;;;;5006559;28;20022;-92
2022/07/03 12:22:33;;;;;;;0.10;0.10;;;34.00;65.10;;;;;;4991805;28;20108;-93
2022/07/03 12:25:12;;;;;;;0.40;0.20;;;35.00;70.20;;;;;;4983689;28;20667;-92
2022/07/03 12:27:45;;;;;;;0.38;0.10;;;34.30;61.90;;;;;;4971734;28;21289;-93
2022/07/03 12:30:27;;;;;;;0.20;0.10;;;;;;;;;;4974934;28;20022;-92
2022/07/03 12:32:53;;;;;;;0.73;0.20;;;34.10;82.70;;;;;;4993086;28;20042;-91
2022/07/03 12:35:24;;;;;;;0.43;0.20;;;34.70;78.00;;;;;;4990995;28;20269;-91
2022/07/03 12:37:50;;;;;;;0.20;0.10;;;34.70;69.70;;;;;;4972240;28;20055;-91
2022/07/03 12:40:16;;;;;;;0.40;0.13;;;34.80;61.60;;;;;;4984668;28;20049;-91
2022/07/03 12:42:48;;;;;;;0.10;0.10;;;34.80;61.30;;;;;;4978962;28;20018;-91
2022/07/03 12:45:21;;;;;;;0.10;0.10;;;34.60;60.40;;;;;;4975434;28;20517;-91
2022/07/03 12:48:03;;;;;;;0.30;0.10;;;34.50;59.60;;;;;;4994334;23;20023;-90
2022/07/03 12:50:55;;;;;;;0.10;0.10;;;35.00;60.20;;;;;;4990988;28;20041;-89
2022/07/03 12:53:31;;;;;;;0.50;0.10;;;34.60;59.50;;;;;;5010681;28;20451;-90
2022/07/03 12:56:07;;;;;;;0.40;0.10;;;34.50;59.70;;;;;;5009207;28;20026;-89
2022/07/03 13:01:29;;;;;;;0.47;0.20;;;34.40;60.60;;;;;;4988682;28;20037;-89
2022/07/03 13:03:55;;;;;;;;;;;33.60;58.50;;;;;;4989410;28;20439;-90
2022/07/03 13:06:22;;;;;;;0.85;0.10;;;33.40;59.40;;;;;;4973606;28;19953;-90
2022/07/03 13:08:55;;;;;;;0.22;0.10;;;33.90;62.20;;;;;;4974468;28;20053;-90
2022/07/03 13:11:38;;;;;;;0.13;0.10;;;34.60;62.10;;;;;;4974639;28;20019;-91
2022/07/03 13:14:05;;;;;;;0.10;0.10;;;35.00;59.90;;;;;;4973458;28;20050;-90
2022/07/03 13:16:37;;;;;;;0.13;0.10;;;34.60;60.70;;;;;;4974910;28;20032;-89
2022/07/03 13:19:05;;;;;;;0.70;0.15;;;34.40;60.10;;;;;;4965038;28;20034;-89
2022/07/03 13:21:31;;;;;;;0.25;0.10;;;34.30;61.00;;;;;;4985579;28;20057;-90
2022/07/03 13:23:57;;;;;;;0.30;0.15;;;34.20;58.70;;;;;;4989259;28;20026;-90
2022/07/03 13:26:25;;;;;;;0.35;0.05;;;34.60;60.20;;;;;;4970363;28;20033;-90
2022/07/03 13:28:51;;;;;;;1.25;0.17;;;34.60;58.20;;;;;;4985031;28;20549;-89
2022/07/03 13:31:18;;;;;;;0.10;0.10;;;34.60;58.40;;;;;;4969624;28;20030;-90
2022/07/03 13:33:43;;;;;;;0.20;0.10;;;34.90;59.30;;;;;;4972463;28;20032;-90
2022/07/03 13:36:09;;;;;;;0.17;0.08;;;35.00;58.60;;;;;;4974777;28;20030;-90
2022/07/03 13:38:35;;;;;;;0.40;0.20;;;35.00;58.40;;;;;;4977251;28;20033;-91
2022/07/03 13:41:00;;;;;;;1.65;0.10;;;35.00;56.80;;;;;;4977364;28;20018;-90
2022/07/03 13:43:26;;;;;;;0.38;0.10;;;35.20;56.10;;;;;;4975855;28;20029;-90
2022/07/03 13:45:53;;;;;;;0.38;0.08;;;35.60;56.10;;;;;;4995934;28;20038;-89
2022/07/03 13:48:21;;;;;;;0.10;0.00;;;35.10;54.70;;;;;;4977783;28;20522;-91
2022/07/03 13:50:46;;;;;;;0.60;0.20;;;35.20;54.70;;;;;;4981235;28;20029;-91
2022/07/03 13:53:13;;;;;;;0.22;0.10;;;35.70;56.80;;;;;;4991327;28;20034;-90